QFA7845 YMML-YSSY
Flight info
| Callsign | QFA7845 |
|---|---|
| Flight time | N/A |
| Altitude | 35000 |
| Route | YMML/34 3423S15013E NASHO 3358S15111E YSSY/34L |
| Aircraft | B738/M-SDE2E3FGHIRWXY/LB1 |
Departure
| Time | N/A |
|---|---|
| Airport | Melbourne Airport (YMML) |
Arrival
| Time | 2026-05-01 07:35 |
|---|---|
| Airport | Sydney Kingsford Smith International Airport (YSSY) |
| Time | Latitude | Longitude | Altitude | Speed | Heading |
|---|---|---|---|---|---|
| 2026-05-01 07:23 | -34.26735 | 150.72795 | 10354 ft | 320 kts | 76° |
| 2026-05-01 07:23 | -34.25796 | 150.77774 | 9953 ft | 286 kts | 75° |
| 2026-05-01 07:24 | -34.25365 | 150.80060 | 9616 ft | 278 kts | 75° |
| 2026-05-01 07:24 | -34.24936 | 150.82320 | 9342 ft | 275 kts | 75° |
| 2026-05-01 07:24 | -34.24514 | 150.84541 | 9036 ft | 273 kts | 75° |
| 2026-05-01 07:24 | -34.24090 | 150.86772 | 8754 ft | 271 kts | 75° |
| 2026-05-01 07:25 | -34.23669 | 150.88985 | 8474 ft | 269 kts | 75° |
| 2026-05-01 07:25 | -34.23250 | 150.91188 | 8201 ft | 267 kts | 75° |
| 2026-05-01 07:25 | -34.22834 | 150.93370 | 7944 ft | 265 kts | 75° |
| 2026-05-01 07:25 | -34.22421 | 150.95537 | 7665 ft | 263 kts | 75° |
| 2026-05-01 07:26 | -34.22012 | 150.97688 | 7434 ft | 260 kts | 76° |
| 2026-05-01 07:26 | -34.21613 | 150.99777 | 7479 ft | 252 kts | 75° |
| 2026-05-01 07:26 | -34.21221 | 151.01829 | 7204 ft | 252 kts | 76° |
| 2026-05-01 07:26 | -34.20826 | 151.03895 | 6717 ft | 253 kts | 75° |
| 2026-05-01 07:27 | -34.20431 | 151.05957 | 6271 ft | 252 kts | 75° |
| 2026-05-01 07:27 | -34.20034 | 151.08028 | 5738 ft | 254 kts | 75° |
| 2026-05-01 07:27 | -34.19636 | 151.10098 | 5291 ft | 252 kts | 75° |
| 2026-05-01 07:27 | -34.19320 | 151.12169 | 4955 ft | 247 kts | 81° |
| 2026-05-01 07:28 | -34.19157 | 151.14103 | 4874 ft | 227 kts | 82° |
| 2026-05-01 07:28 | -34.19021 | 151.15932 | 4725 ft | 210 kts | 83° |
| 2026-05-01 07:28 | -34.18906 | 151.17606 | 4580 ft | 195 kts | 83° |
| 2026-05-01 07:28 | -34.18528 | 151.19131 | 4218 ft | 188 kts | 52° |
| 2026-05-01 07:29 | -34.17494 | 151.20043 | 3864 ft | 187 kts | 22° |
| 2026-05-01 07:29 | -34.16300 | 151.20612 | 3666 ft | 182 kts | 22° |
| 2026-05-01 07:29 | -34.15151 | 151.21168 | 3456 ft | 174 kts | 23° |
| 2026-05-01 07:29 | -34.14039 | 151.21696 | 3253 ft | 168 kts | 23° |
| 2026-05-01 07:30 | -34.12952 | 151.22165 | 3089 ft | 164 kts | 12° |
| 2026-05-01 07:30 | -34.11806 | 151.22010 | 3040 ft | 169 kts | 351° |
| 2026-05-01 07:30 | -34.10666 | 151.21740 | 2854 ft | 162 kts | 354° |
| 2026-05-01 07:30 | -34.09580 | 151.21482 | 2638 ft | 156 kts | 352° |
| 2026-05-01 07:31 | -34.08529 | 151.21217 | 2437 ft | 153 kts | 352° |
| 2026-05-01 07:31 | -34.05377 | 151.20399 | 1820 ft | 154 kts | 352° |
| 2026-05-01 07:32 | -34.03249 | 151.19845 | 1404 ft | 156 kts | 351° |
| 2026-05-01 07:32 | -34.02198 | 151.19571 | 1227 ft | 150 kts | 351° |
| 2026-05-01 07:33 | -34.00271 | 151.19068 | 852 ft | 136 kts | 352° |
| 2026-05-01 07:33 | -33.99363 | 151.18828 | 650 ft | 136 kts | 351° |
| 2026-05-01 07:33 | -33.97482 | 151.18339 | 294 ft | 137 kts | 352° |
| 2026-05-01 07:34 | -33.96566 | 151.18096 | 110 ft | 135 kts | 352° |
| 2026-05-01 07:34 | -33.95004 | 151.17696 | 27 ft | 82 kts | 348° |
| 2026-05-01 07:34 | -33.94563 | 151.17582 | 29 ft | 51 kts | 348° |
| 2026-05-01 07:35 | -33.94352 | 151.17527 | 29 ft | 23 kts | 348° |
| 2026-05-01 07:35 | -33.94251 | 151.17589 | 29 ft | 18 kts | 77° |
| 2026-05-01 07:35 | -33.94237 | 151.17650 | 28 ft | 0 kts | 73° |
| 2026-05-01 07:37 | -33.94190 | 151.17691 | 28 ft | 11 kts | 353° |
| 2026-05-01 07:37 | -33.94101 | 151.17664 | 27 ft | 15 kts | 346° |
| 2026-05-01 07:37 | -33.93979 | 151.17632 | 28 ft | 11 kts | 347° |
| 2026-05-01 07:38 | -33.93943 | 151.17622 | 28 ft | 6 kts | 347° |
| 2026-05-01 07:38 | -33.93899 | 151.17611 | 28 ft | 7 kts | 348° |
| 2026-05-01 07:38 | -33.93705 | 151.17560 | 28 ft | 19 kts | 348° |
| 2026-05-01 07:39 | -33.93574 | 151.17527 | 28 ft | 19 kts | 348° |
| 2026-05-01 07:39 | -33.93448 | 151.17502 | 29 ft | 18 kts | 6° |
| 2026-05-01 07:39 | -33.93209 | 151.17460 | 29 ft | 17 kts | 348° |
| 2026-05-01 07:40 | -33.93096 | 151.17430 | 29 ft | 16 kts | 348° |
| 2026-05-01 07:40 | -33.93005 | 151.17410 | 29 ft | 11 kts | 5° |
| 2026-05-01 07:40 | -33.92988 | 151.17486 | 29 ft | 11 kts | 101° |
| 2026-05-01 07:40 | -33.93003 | 151.17577 | 29 ft | 11 kts | 101° |
| 2026-05-01 07:41 | -33.93016 | 151.17662 | 29 ft | 7 kts | 100° |
| 2026-05-01 07:41 | -33.93057 | 151.17680 | 29 ft | 7 kts | 189° |
| 2026-05-01 07:41 | -33.93096 | 151.17674 | 29 ft | 1 kts | 187° |
| 2026-05-01 07:42 | -33.93098 | 151.17674 | 29 ft | 0 kts | 187° |